createdAt,value
2019-02-28T00:01:56.387Z,43.30
2019-02-28T00:04:25.532Z,43.50
2019-02-28T00:06:55.695Z,43.80
2019-02-28T00:09:25.707Z,44.00
2019-02-28T00:11:55.675Z,44.00
2019-02-28T00:14:27.777Z,44.10
2019-02-28T00:16:59.202Z,44.20
2019-02-28T00:19:30.399Z,44.50
2019-02-28T00:22:00.408Z,44.70
2019-02-28T00:24:31.776Z,44.70
2019-02-28T00:27:01.531Z,44.90
2019-02-28T00:29:33.710Z,45.10
2019-02-28T00:32:02.544Z,45.20
2019-02-28T00:34:32.410Z,45.40
2019-02-28T00:37:04.640Z,45.40
2019-02-28T00:39:34.812Z,45.60
2019-02-28T00:42:05.838Z,45.70
2019-02-28T00:44:35.092Z,45.50
2019-02-28T00:47:04.229Z,45.50
2019-02-28T00:49:33.362Z,45.40
2019-02-28T00:52:02.921Z,45.10
2019-02-28T00:54:34.017Z,45.00
2019-02-28T00:57:04.085Z,44.70
2019-02-28T00:59:33.299Z,44.70
2019-02-28T01:02:03.331Z,44.60
2019-02-28T01:04:32.563Z,44.40
2019-02-28T01:07:06.080Z,44.20
2019-02-28T01:09:35.236Z,44.10
2019-02-28T01:12:05.449Z,44.10
2019-02-28T01:14:36.655Z,44.00
2019-02-28T01:17:07.044Z,43.90
2019-02-28T01:19:53.966Z,43.90
2019-02-28T01:22:23.111Z,43.80
2019-02-28T01:24:56.417Z,43.60
2019-02-28T01:27:25.715Z,43.60
2019-02-28T01:29:54.868Z,43.50
2019-02-28T01:32:24.376Z,43.40
2019-02-28T01:34:53.947Z,43.30
2019-02-28T01:37:28.158Z,43.40
2019-02-28T01:40:01.038Z,43.40
2019-02-28T01:42:29.572Z,43.40
2019-02-28T01:45:16.576Z,43.40
2019-02-28T01:47:45.714Z,43.70
2019-02-28T01:50:14.882Z,43.60
2019-02-28T01:52:45.861Z,43.80
2019-02-28T01:55:15.225Z,44.00
2019-02-28T01:57:44.487Z,44.20
2019-02-28T02:00:16.129Z,44.20
2019-02-28T02:02:45.371Z,44.50
2019-02-28T02:05:17.299Z,44.50
2019-02-28T02:07:49.590Z,44.10
2019-02-28T02:10:23.423Z,44.70
2019-02-28T02:12:52.576Z,45.10
2019-02-28T02:15:21.723Z,45.50
2019-02-28T02:17:50.871Z,46.30
2019-02-28T02:20:20.022Z,46.00
2019-02-28T02:22:49.474Z,46.30
2019-02-28T02:25:18.652Z,46.50
2019-02-28T02:27:52.819Z,46.80
2019-02-28T02:30:22.841Z,47.10
2019-02-28T02:32:53.293Z,47.80
2019-02-28T02:35:22.479Z,47.30
2019-02-28T02:37:51.687Z,47.60
2019-02-28T02:40:23.082Z,47.70
2019-02-28T02:42:54.153Z,48.10
2019-02-28T02:45:23.302Z,48.20
2019-02-28T02:47:53.368Z,48.40
2019-02-28T02:50:23.316Z,48.50
2019-02-28T02:52:52.531Z,48.80
2019-02-28T02:55:27.912Z,49.00
2019-02-28T02:57:52.525Z,49.30
2019-02-28T03:00:21.666Z,49.60
2019-02-28T03:02:50.880Z,49.70
2019-02-28T03:05:20.094Z,50.00
2019-02-28T03:07:49.250Z,50.20
2019-02-28T03:10:19.700Z,50.40
2019-02-28T03:12:49.744Z,50.50
2019-02-28T03:15:24.800Z,50.60
2019-02-28T03:17:50.889Z,50.90
2019-02-28T03:20:20.070Z,50.90
2019-02-28T03:22:49.965Z,51.30
2019-02-28T03:25:27.442Z,51.40
2019-02-28T03:27:56.380Z,51.60
2019-02-28T03:30:29.379Z,51.80
2019-02-28T03:32:53.450Z,52.00
2019-02-28T03:35:22.603Z,52.20
2019-02-28T03:37:51.832Z,52.50
2019-02-28T03:40:20.968Z,52.60
2019-02-28T03:42:51.798Z,52.80
2019-02-28T03:45:20.999Z,53.00
2019-02-28T03:47:50.205Z,53.20
2019-02-28T03:50:21.980Z,53.40
2019-02-28T03:52:50.548Z,53.80
2019-02-28T03:55:19.705Z,53.80
2019-02-28T03:57:48.839Z,54.00
2019-02-28T04:00:23.227Z,54.20
2019-02-28T04:02:57.067Z,54.50
2019-02-28T04:05:27.965Z,54.60
2019-02-28T04:07:57.171Z,54.90
2019-02-28T04:10:27.519Z,55.00
2019-02-28T04:12:58.288Z,55.10
2019-02-28T04:15:30.432Z,55.30
2019-02-28T04:18:06.856Z,55.40
2019-02-28T04:20:36.085Z,55.50
2019-02-28T04:23:01.345Z,55.80
2019-02-28T04:25:31.835Z,56.00
2019-02-28T04:28:01.064Z,56.00
2019-02-28T04:30:31.934Z,56.10
2019-02-28T04:33:01.697Z,56.30
2019-02-28T04:35:34.542Z,56.40
2019-02-28T04:38:04.736Z,56.50
2019-02-28T04:40:34.022Z,56.60
2019-02-28T04:43:03.199Z,56.70
2019-02-28T04:45:33.663Z,56.90
2019-02-28T04:48:02.904Z,57.00
2019-02-28T04:50:34.400Z,57.20
2019-02-28T04:53:03.590Z,57.20
2019-02-28T04:55:34.220Z,57.20
2019-02-28T04:58:04.773Z,57.40
2019-02-28T05:00:34.258Z,57.60
2019-02-28T05:03:04.229Z,57.60
2019-02-28T05:05:34.276Z,57.70
2019-02-28T05:08:05.813Z,57.90
2019-02-28T05:10:35.440Z,58.20
2019-02-28T05:13:04.594Z,58.30
2019-02-28T05:15:37.314Z,58.50
2019-02-28T05:18:04.582Z,58.70
2019-02-28T05:20:33.733Z,59.00
2019-02-28T05:23:04.221Z,59.30
2019-02-28T05:25:33.389Z,59.70
2019-02-28T05:28:02.676Z,59.80
2019-02-28T05:30:31.895Z,60.00
2019-02-28T05:33:01.034Z,60.20
2019-02-28T05:35:30.178Z,60.60
2019-02-28T05:37:59.318Z,60.50
2019-02-28T05:40:28.493Z,60.60
2019-02-28T05:42:59.233Z,60.80
2019-02-28T05:45:29.615Z,60.90
2019-02-28T05:47:58.817Z,61.20
2019-02-28T05:50:27.947Z,61.30
2019-02-28T05:52:57.094Z,61.40
2019-02-28T05:55:26.249Z,61.40
2019-02-28T05:57:55.403Z,61.50
2019-02-28T06:00:25.578Z,61.70
2019-02-28T06:03:02.598Z,61.90
2019-02-28T06:05:32.417Z,62.00
2019-02-28T06:08:03.546Z,62.20
2019-02-28T06:10:34.025Z,62.50
2019-02-28T06:13:03.160Z,62.70
2019-02-28T06:15:34.189Z,62.80
2019-02-28T06:18:03.169Z,63.20
2019-02-28T06:20:32.298Z,63.40
2019-02-28T06:23:01.453Z,63.70
2019-02-28T06:25:30.686Z,63.70
2019-02-28T06:27:59.841Z,64.10
2019-02-28T06:30:29.026Z,64.10
2019-02-28T06:32:59.598Z,64.20
2019-02-28T06:35:28.923Z,64.30
2019-02-28T06:37:58.085Z,64.50
2019-02-28T06:40:32.805Z,64.60
2019-02-28T06:43:01.452Z,64.70
2019-02-28T06:45:36.654Z,65.00
2019-02-28T06:48:03.222Z,65.20
2019-02-28T06:50:32.375Z,65.20
2019-02-28T06:53:01.533Z,65.30
2019-02-28T06:55:30.661Z,65.60
2019-02-28T06:57:59.887Z,65.40
2019-02-28T07:00:29.023Z,65.60
2019-02-28T07:02:58.171Z,65.90
2019-02-28T07:05:28.423Z,66.10
2019-02-28T07:07:57.565Z,66.00
2019-02-28T07:10:26.731Z,66.20
2019-02-28T07:12:55.975Z,66.30
2019-02-28T07:15:25.185Z,66.50
2019-02-28T07:17:54.339Z,66.70
2019-02-28T07:20:23.491Z,66.90
2019-02-28T07:22:55.577Z,66.90
2019-02-28T07:25:23.547Z,67.20
2019-02-28T07:27:52.711Z,67.10
2019-02-28T07:30:21.910Z,67.10
2019-02-28T07:32:51.076Z,67.10
2019-02-28T07:35:20.278Z,67.00
2019-02-28T07:37:53.214Z,67.10
2019-02-28T07:40:20.298Z,67.10
2019-02-28T07:42:49.510Z,67.30
2019-02-28T07:45:18.676Z,67.00
2019-02-28T07:47:51.786Z,66.70
2019-02-28T07:50:18.686Z,67.10
2019-02-28T07:52:47.932Z,67.00
2019-02-28T07:55:18.807Z,67.10
2019-02-28T07:57:53.291Z,66.80
2019-02-28T08:00:25.491Z,66.80
2019-02-28T08:02:54.667Z,66.70
2019-02-28T08:05:30.083Z,66.70
2019-02-28T08:07:57.352Z,66.70
2019-02-28T08:10:32.092Z,66.50
2019-02-28T08:13:03.027Z,66.50
2019-02-28T08:15:32.154Z,66.50
2019-02-28T08:18:01.303Z,66.40
2019-02-28T08:20:34.037Z,66.20
2019-02-28T08:23:06.480Z,65.90
2019-02-28T08:25:35.650Z,65.30
2019-02-28T08:28:23.079Z,64.50
2019-02-28T08:30:55.345Z,64.20
2019-02-28T08:33:23.138Z,64.20
2019-02-28T08:35:52.688Z,64.30
2019-02-28T08:39:08.765Z,64.40
2019-02-28T08:41:36.931Z,64.30
2019-02-28T08:44:06.063Z,64.20
2019-02-28T08:46:37.146Z,64.10
2019-02-28T08:49:07.205Z,63.90
2019-02-28T08:51:36.612Z,63.80
2019-02-28T08:54:06.163Z,63.60
2019-02-28T08:56:36.452Z,63.30
2019-02-28T08:59:11.785Z,63.00
2019-02-28T09:01:40.089Z,62.90
2019-02-28T09:04:07.369Z,62.80
2019-02-28T09:06:37.900Z,63.00
2019-02-28T09:09:09.414Z,63.10
2019-02-28T09:11:38.650Z,62.60
2019-02-28T09:14:07.798Z,62.30
2019-02-28T09:16:39.703Z,62.10
2019-02-28T09:19:08.771Z,62.00
2019-02-28T09:21:37.924Z,61.80
2019-02-28T09:24:09.399Z,61.60
2019-02-28T09:26:37.990Z,61.00
2019-02-28T09:29:07.203Z,60.60
2019-02-28T09:31:39.084Z,60.60
2019-02-28T09:34:11.759Z,60.40
2019-02-28T09:36:40.977Z,60.40
2019-02-28T09:39:10.126Z,60.00
2019-02-28T09:41:40.160Z,59.90
2019-02-28T09:44:10.132Z,59.50
2019-02-28T09:46:39.278Z,59.20
2019-02-28T09:49:11.990Z,59.00
2019-02-28T09:51:39.307Z,59.00
2019-02-28T09:54:08.474Z,58.50
2019-02-28T09:56:37.695Z,58.60
2019-02-28T09:59:07.112Z,58.60
2019-02-28T10:01:37.155Z,58.20
2019-02-28T10:04:06.316Z,57.60
2019-02-28T10:06:35.532Z,57.10
2019-02-28T10:09:08.786Z,56.80
2019-02-28T10:11:36.686Z,56.90
2019-02-28T10:14:05.828Z,56.90
2019-02-28T10:16:35.017Z,57.00
2019-02-28T10:19:05.246Z,57.30
2019-02-28T10:21:36.441Z,56.50
2019-02-28T10:24:05.446Z,56.20
2019-02-28T10:26:34.594Z,56.50
2019-02-28T10:29:04.563Z,56.50
2019-02-28T10:31:38.200Z,56.50
2019-02-28T10:34:05.517Z,56.70
2019-02-28T10:36:34.767Z,56.60
2019-02-28T10:39:05.937Z,56.30
2019-02-28T10:41:36.211Z,56.10
2019-02-28T10:44:05.372Z,56.20
2019-02-28T10:46:36.033Z,55.90
2019-02-28T10:49:05.519Z,55.70
2019-02-28T10:51:35.097Z,55.70
2019-02-28T10:54:04.255Z,55.80
2019-02-28T10:56:33.794Z,55.70
2019-02-28T10:59:03.027Z,55.70
2019-02-28T11:01:32.170Z,55.50
2019-02-28T11:04:01.427Z,55.20
2019-02-28T11:06:30.584Z,54.70
2019-02-28T11:08:59.744Z,54.50
2019-02-28T11:11:28.900Z,54.60
2019-02-28T11:13:58.043Z,54.50
2019-02-28T11:16:27.207Z,54.80
2019-02-28T11:18:56.503Z,54.70
2019-02-28T11:21:26.023Z,54.60
2019-02-28T11:23:55.208Z,54.50
2019-02-28T11:26:24.411Z,54.70
2019-02-28T11:28:53.604Z,54.70
2019-02-28T11:31:22.818Z,55.10
2019-02-28T11:33:51.968Z,55.10
2019-02-28T11:36:21.147Z,55.10
2019-02-28T11:38:52.449Z,55.00
2019-02-28T11:41:21.208Z,54.90
2019-02-28T11:43:50.367Z,55.00
2019-02-28T11:46:19.618Z,54.80
2019-02-28T11:48:50.982Z,54.70
2019-02-28T11:51:19.607Z,54.50
2019-02-28T11:53:48.780Z,54.40
2019-02-28T11:56:17.983Z,54.60
2019-02-28T11:58:51.318Z,54.70
2019-02-28T12:01:18.003Z,54.70
2019-02-28T12:03:47.185Z,54.40
2019-02-28T12:06:16.342Z,54.20
2019-02-28T12:08:45.770Z,54.40
2019-02-28T12:11:16.858Z,54.40
2019-02-28T12:13:45.995Z,54.40
2019-02-28T12:16:16.259Z,54.20
2019-02-28T12:18:46.014Z,54.00
2019-02-28T12:21:15.181Z,53.30
2019-02-28T12:23:44.341Z,53.10
2019-02-28T12:26:14.317Z,52.80
2019-02-28T12:28:45.266Z,53.00
2019-02-28T12:31:14.408Z,52.90
2019-02-28T12:33:43.554Z,52.90
2019-02-28T12:36:14.458Z,52.70
2019-02-28T12:38:44.515Z,52.30
2019-02-28T12:41:13.798Z,52.50
2019-02-28T12:43:43.021Z,52.20
2019-02-28T12:46:12.289Z,52.10
2019-02-28T12:48:41.532Z,51.70
2019-02-28T12:51:10.750Z,51.70
2019-02-28T12:53:39.915Z,51.80
2019-02-28T12:56:11.196Z,51.60
2019-02-28T12:58:41.664Z,51.60
2019-02-28T13:01:10.813Z,51.90
2019-02-28T13:03:40.046Z,51.70
2019-02-28T13:06:09.203Z,51.80
2019-02-28T13:08:41.337Z,51.40
2019-02-28T13:11:09.303Z,51.20
2019-02-28T13:13:38.476Z,51.20
2019-02-28T13:16:07.627Z,50.90
2019-02-28T13:18:39.539Z,50.70
2019-02-28T13:21:10.692Z,50.20
2019-02-28T13:23:39.422Z,49.90
2019-02-28T13:26:08.760Z,49.80
2019-02-28T13:28:37.928Z,49.60
2019-02-28T13:31:07.171Z,49.70
2019-02-28T13:33:36.444Z,49.40
2019-02-28T13:36:05.663Z,49.70
2019-02-28T13:38:34.814Z,49.60
2019-02-28T13:41:03.989Z,49.80
2019-02-28T13:43:33.230Z,49.80
2019-02-28T13:46:02.385Z,49.80
2019-02-28T13:48:33.932Z,50.40
2019-02-28T13:51:08.165Z,50.10
2019-02-28T13:53:35.083Z,50.30
2019-02-28T13:56:05.097Z,50.50
2019-02-28T13:58:34.581Z,50.60
2019-02-28T14:01:03.739Z,50.50
2019-02-28T14:03:32.900Z,50.30
2019-02-28T14:06:02.070Z,50.40
2019-02-28T14:08:31.274Z,50.40
2019-02-28T14:11:00.515Z,50.40
2019-02-28T14:13:34.743Z,50.60
2019-02-28T14:16:01.499Z,50.50
2019-02-28T14:18:30.640Z,50.40
2019-02-28T14:21:02.925Z,50.50
2019-02-28T14:23:30.664Z,50.40
2019-02-28T14:25:59.814Z,50.40
2019-02-28T14:28:28.981Z,50.80
2019-02-28T14:30:58.761Z,51.20
2019-02-28T14:33:28.131Z,51.60
2019-02-28T14:35:57.268Z,51.80
2019-02-28T14:38:29.645Z,52.10
2019-02-28T14:40:59.300Z,52.50
2019-02-28T14:43:28.240Z,52.80
2019-02-28T14:45:57.396Z,53.20
2019-02-28T14:48:29.188Z,53.50
2019-02-28T14:50:58.917Z,53.70
2019-02-28T14:53:28.244Z,54.10
2019-02-28T14:55:57.398Z,55.00
2019-02-28T14:58:26.625Z,54.50
2019-02-28T15:00:55.855Z,54.90
2019-02-28T15:03:25.020Z,55.20
2019-02-28T15:05:55.556Z,55.50
2019-02-28T15:08:26.987Z,55.50
2019-02-28T15:10:55.965Z,55.80
2019-02-28T15:13:25.127Z,56.00
2019-02-28T15:15:54.411Z,56.40
2019-02-28T15:18:23.707Z,56.50
2019-02-28T15:20:52.935Z,56.90
2019-02-28T15:23:22.113Z,57.20
2019-02-28T15:25:54.201Z,57.40
2019-02-28T15:28:22.232Z,57.60
2019-02-28T15:30:51.403Z,57.70
2019-02-28T15:33:20.566Z,58.00
2019-02-28T15:35:50.498Z,58.20
2019-02-28T15:38:19.797Z,58.60
2019-02-28T15:40:49.420Z,58.90
2019-02-28T15:43:18.620Z,59.20
2019-02-28T15:45:47.835Z,59.60
2019-02-28T15:48:17.083Z,59.80
2019-02-28T15:50:51.274Z,60.00
2019-02-28T15:53:18.974Z,60.50
2019-02-28T15:55:48.127Z,60.90
2019-02-28T15:58:17.300Z,61.20
2019-02-28T16:00:47.444Z,61.50
2019-02-28T16:03:17.389Z,61.80
2019-02-28T16:05:46.862Z,62.10
2019-02-28T16:08:16.094Z,62.40
2019-02-28T16:10:53.215Z,62.90
2019-02-28T16:13:22.612Z,63.10
2019-02-28T16:15:58.479Z,63.40
2019-02-28T16:18:30.520Z,64.00
2019-02-28T16:20:59.764Z,64.20
2019-02-28T16:23:31.085Z,64.60
2019-02-28T16:26:00.114Z,65.00
2019-02-28T16:28:29.324Z,65.50
2019-02-28T16:30:58.625Z,66.20
2019-02-28T16:33:27.888Z,66.70
2019-02-28T16:35:57.276Z,67.00
2019-02-28T16:38:28.063Z,67.60
2019-02-28T16:40:57.694Z,68.00
2019-02-28T16:43:28.089Z,68.50
2019-02-28T16:45:57.368Z,68.80
2019-02-28T16:48:26.616Z,69.20
2019-02-28T16:50:56.959Z,69.50
2019-02-28T16:53:26.436Z,70.00
2019-02-28T16:55:55.632Z,70.90
2019-02-28T16:58:24.778Z,70.60
2019-02-28T17:00:53.965Z,70.80
2019-02-28T17:03:23.180Z,71.00
2019-02-28T17:05:52.342Z,71.20
2019-02-28T17:08:21.492Z,71.50
2019-02-28T17:10:50.836Z,71.70
2019-02-28T17:13:24.956Z,71.90
2019-02-28T17:16:01.192Z,72.10
2019-02-28T17:18:35.350Z,72.20
2019-02-28T17:21:04.495Z,72.60
2019-02-28T17:23:36.792Z,72.90
2019-02-28T17:26:04.607Z,73.00
2019-02-28T17:28:35.450Z,73.20
2019-02-28T17:31:22.909Z,73.60
2019-02-28T17:33:52.198Z,73.70
2019-02-28T17:36:21.365Z,74.10
2019-02-28T17:38:50.849Z,74.30
2019-02-28T17:41:20.000Z,74.50
2019-02-28T17:44:24.782Z,74.80
2019-02-28T17:47:00.488Z,75.10
2019-02-28T17:50:05.601Z,75.30
2019-02-28T17:52:52.636Z,75.30
2019-02-28T17:56:03.943Z,75.40
2019-02-28T17:59:08.541Z,75.70
2019-02-28T18:02:15.758Z,75.90
2019-02-28T18:04:58.555Z,76.00
2019-02-28T18:07:47.413Z,76.40
2019-02-28T18:10:55.770Z,76.40
2019-02-28T18:13:52.185Z,76.30
2019-02-28T18:16:29.276Z,76.20
2019-02-28T18:19:33.065Z,76.20
2019-02-28T18:22:08.239Z,76.40
2019-02-28T18:25:13.994Z,76.70
2019-02-28T18:27:52.520Z,76.90
2019-02-28T18:30:27.575Z,77.00
2019-02-28T18:32:58.075Z,77.10
2019-02-28T18:35:29.113Z,77.50
2019-02-28T18:38:00.802Z,77.60
2019-02-28T18:40:29.097Z,77.70
2019-02-28T18:42:58.314Z,78.00
2019-02-28T18:45:27.486Z,77.80
2019-02-28T18:47:56.629Z,77.90
2019-02-28T18:50:26.976Z,78.10
2019-02-28T18:52:56.230Z,78.30
2019-02-28T18:55:34.498Z,78.60
2019-02-28T18:57:56.323Z,78.60
2019-02-28T19:00:25.691Z,79.00
2019-02-28T19:02:55.098Z,79.00
2019-02-28T19:05:25.885Z,79.20
2019-02-28T19:07:55.358Z,79.40
2019-02-28T19:10:24.592Z,79.60
2019-02-28T19:12:54.711Z,79.90
2019-02-28T19:15:24.026Z,80.30
2019-02-28T19:17:53.455Z,80.40
2019-02-28T19:20:34.537Z,80.60
2019-02-28T19:23:03.747Z,80.70
2019-02-28T19:25:35.876Z,80.70
2019-02-28T19:28:05.146Z,80.90
2019-02-28T19:30:34.378Z,81.10
2019-02-28T19:33:03.593Z,81.20
2019-02-28T19:35:32.795Z,81.00
2019-02-28T19:38:02.152Z,81.50
2019-02-28T19:40:31.382Z,81.50
2019-02-28T19:43:00.631Z,81.60
2019-02-28T19:45:35.819Z,81.50
2019-02-28T19:48:04.977Z,82.20
2019-02-28T19:50:34.150Z,81.30
2019-02-28T19:53:03.386Z,81.40
2019-02-28T19:55:32.798Z,81.50
2019-02-28T19:58:02.082Z,81.50
2019-02-28T20:00:31.327Z,81.80
2019-02-28T20:03:00.568Z,81.90
2019-02-28T20:05:36.030Z,81.90
2019-02-28T20:08:05.345Z,82.00
2019-02-28T20:10:34.570Z,82.00
2019-02-28T20:13:04.889Z,82.10
2019-02-28T20:15:37.398Z,82.00
2019-02-28T20:18:06.659Z,81.60
2019-02-28T20:20:39.463Z,81.50
2019-02-28T20:23:12.066Z,81.00
2019-02-28T20:25:41.298Z,80.90
2019-02-28T20:28:10.475Z,81.00
2019-02-28T20:30:42.299Z,81.00
2019-02-28T20:33:14.679Z,80.90
2019-02-28T20:35:43.844Z,80.90
2019-02-28T20:38:15.253Z,80.70
2019-02-28T20:40:45.463Z,80.70
2019-02-28T20:43:14.608Z,80.80
2019-02-28T20:45:44.001Z,80.70
2019-02-28T20:48:13.647Z,80.70
2019-02-28T20:50:46.343Z,80.70
2019-02-28T20:53:15.632Z,80.60
2019-02-28T20:55:44.917Z,80.70
2019-02-28T20:58:16.012Z,80.70
2019-02-28T21:00:44.967Z,80.80
2019-02-28T21:03:14.199Z,80.80
2019-02-28T21:05:43.541Z,80.90
2019-02-28T21:08:12.819Z,80.90
2019-02-28T21:10:41.975Z,80.90
2019-02-28T21:13:12.304Z,80.90
2019-02-28T21:15:41.711Z,81.20
2019-02-28T21:18:12.203Z,80.70
2019-02-28T21:20:42.424Z,80.70
2019-02-28T21:23:11.699Z,80.60
2019-02-28T21:25:41.195Z,80.20
2019-02-28T21:28:10.421Z,80.20
2019-02-28T21:30:39.582Z,80.40
2019-02-28T21:33:08.893Z,80.00
2019-02-28T21:35:39.877Z,80.00
2019-02-28T21:38:09.126Z,79.70
2019-02-28T21:40:38.420Z,79.30
2019-02-28T21:43:07.651Z,79.10
2019-02-28T21:45:36.806Z,78.90
2019-02-28T21:48:05.966Z,78.50
2019-02-28T21:50:35.241Z,78.40
2019-02-28T21:53:04.395Z,78.00
2019-02-28T21:55:33.530Z,78.00
2019-02-28T21:58:02.814Z,77.90
2019-02-28T22:00:33.125Z,77.60
2019-02-28T22:03:02.444Z,77.00
2019-02-28T22:05:31.596Z,76.90
2019-02-28T22:08:00.762Z,76.80
2019-02-28T22:10:29.971Z,76.70
2019-02-28T22:12:59.771Z,76.60
2019-02-28T22:15:29.238Z,77.10
2019-02-28T22:17:58.459Z,76.20
2019-02-28T22:20:27.604Z,76.10
2019-02-28T22:22:56.879Z,76.10
2019-02-28T22:25:26.039Z,76.20
2019-02-28T22:27:55.198Z,76.20
2019-02-28T22:30:42.584Z,76.40
2019-02-28T22:33:46.037Z,76.20
2019-02-28T22:36:22.718Z,76.20
2019-02-28T22:38:51.866Z,76.80
2019-02-28T22:41:21.011Z,75.90
2019-02-28T22:43:50.242Z,75.80
2019-02-28T22:46:19.458Z,75.70
2019-02-28T22:48:48.606Z,75.40
2019-02-28T22:51:17.742Z,75.50
2019-02-28T22:53:46.896Z,75.60
2019-02-28T22:56:16.067Z,75.40
2019-02-28T22:58:45.282Z,75.20
2019-02-28T23:01:19.453Z,75.10
2019-02-28T23:03:48.852Z,75.10
2019-02-28T23:06:18.008Z,75.10
2019-02-28T23:08:47.207Z,75.10
2019-02-28T23:11:16.363Z,74.90
2019-02-28T23:13:45.526Z,75.00
2019-02-28T23:16:14.752Z,74.60
2019-02-28T23:18:43.896Z,74.50
2019-02-28T23:21:13.157Z,74.40
2019-02-28T23:23:42.366Z,74.70
2019-02-28T23:26:13.074Z,74.70
2019-02-28T23:28:48.312Z,74.50
2019-02-28T23:31:20.726Z,74.20
2019-02-28T23:33:49.861Z,74.40
2019-02-28T23:36:19.074Z,74.80
2019-02-28T23:38:48.888Z,74.70
2019-02-28T23:41:18.055Z,74.20
2019-02-28T23:43:47.205Z,74.20
2019-02-28T23:46:16.705Z,74.60
2019-02-28T23:48:47.167Z,74.50
2019-02-28T23:51:16.381Z,74.20
2019-02-28T23:53:45.614Z,73.90
2019-02-28T23:56:14.763Z,74.30
2019-02-28T23:58:43.908Z,74.20
